New Bedford, MA

3:27 PM EDT on September 02, 2015 (GMT -0400)
New Bedford Northwest End | | Change Station
CLOSE
Current Station
Personal Weather Station
Location: New Bedford, MA
Elevation: 165 ft
Nearby Weather Stations

Elev 165 ft 41.65 °N, 70.97 °W | Updated 5 minutes ago

Clear
Clear
82.9 °F
Feels Like 88 °F
N
3.2
Wind Variable Wind from WSW

Today
High -- | Low -- °F
--% Chance of Precip.
Yesterday
High -- | Low -- °F
Precip. -- in
6:10 AM 7:15 PM
Waning Gibbous, 78% visible
Pressure 29.93 in
Visibility 10.0 miles
Clouds Clear
Heat Index 88 °F
Dew Point 72 °F
Humidity 71%
Rainfall 0.00 in
Snow Depth Not available.
UV 7 out of 12
Pollen 8.70 out of 12
Air Quality Not available.
Flu Activity Not available.
METAR KEWB 021853Z 23009KT 10SM CLR 28/20 A2993 RMK AO2 SLP133 T02830200
Pressure 29.93 in
Visibility 10.0 miles
Clouds Clear
Heat Index 88 °F
Dew Point 72 °F
Humidity 71%
Rainfall 0.00 in
Snow Depth Not available.
UV 7 out of 12
Pollen 8.70 out of 12
Air Quality Not available.
Flu Activity Not available.
METAR KEWB 021853Z 23009KT 10SM CLR 28/20 A2993 RMK AO2 SLP133 T02830200

10-Day Weather Forecast

×

Almanac

Astronomy

Sep. 02, 2015 Rise Set
Actual Time
Civil Twilight
Nautical Twilight
Astronomical Twilight
Moon
Length of Visible Light
Length of Day
Tomorrow will be .
, % of the Moon is Illuminated

Today's Extremes

State Highs State Lows

Community

WunderPhotos

Upload Photos

1,851,799 photos uploaded!

WunderBlogs® & News

Nearby

Air Quality

  Air Quality AQ Index Pollutant
Not available.

Snow Depth

Station Depth Elevation

Earthquake Activity

City Distance Mag. Time & Date
Minimum magnitude displayed is 2.5.

Coastal Water Temperatures

Place Temperature

Stations

Nearby Weather Stations

Station Location Temp. Windchill Dew Point Humidity Wind Precip. Elev Updated Type